Latest METARs, TAFs and NOTAMs for SKBQ


---------------------------------------------------------------------------
	(OBSERVATIONS)
SKBQ 241400Z 02004KT 9999 SCT012 30/26 A2983=
SKBQ 241300Z 04006KT 9999 SCT012 SCT200 29/26 A2982=
SKBQ 241200Z 36004KT 9999 FEW010 SCT200 27/25 A2980=
---------------------------------------------------------------------------
	(TERMINAL AREA FORECAST)
SKBQ 241100Z 2412/2512 03010KT 9999 FEW015
    TEMPO 2412/2414 5000 BR SCT010
    BECMG 2414/2416 36012KT
    PROB40 TEMPO 2420/2423 8000 DZRA SCT017CB
    TEMPO 2504/2509 VRB02KT
    TX31/2418Z TN24/2511Z=
---------------------------------------------------------------------------
	(NOTAMS)


SKBQ A0739/17 ACFT STAND NR 6 CLSD. H24, 13 MAR 15:31 2017 UNTIL
    13 MAR 23:59 2018. CREATED: 13 MAR 15:32 2017

SKBQ A0904/17 IAP RNAV (GNSS) RWY 23 NO AVBL. 05 APR 12:40 2017
    UNTIL 05 JUL 23:59 2017 ESTIMATED. CREATED: 05 APR 12:45
    2017

SKBQ A1288/17 TWY E SECT S, CLSD. H24, 06 MAY 17:59 2017 UNTIL
    05 JUL 23:59 2017. CREATED: 06 MAY 18:02 2017

SKBQ A1305/17 MOVEMENT AREA WIP, EXER CTN. H24, 08 MAY 00:00
    2017 UNTIL 08 AUG 23:59 2017. CREATED: 07 MAY 11:36 2017

SKBQ A1365/17 RWY 05/23 WIP, DISNIVEL PRESENCE, EXER CTN. H24,
    13 MAY 00:56 2017 UNTIL 31 AUG 23:59 2017. CREATED: 13 MAY
    00:59 2017

SKBQ A1396/17 FREQ 118,1 MHZ ERNESTO CORTISSOZ TWR U/S OPR FREQ
    ALTN 118.45 MHZ. H24, 16 MAY 16:10 2017 UNTIL 16 AUG 23:59
    2017 ESTIMATED. CREATED: 16 MAY 16:22 2017

SKBQ A1414/17 POINT Z RELOCATED TEMPO NEXT COORD 105342,99N0744624,59W
    ELEV 16,33 M. H24, 17 MAY 16:20 2017 UNTIL 16 AUG 23:59 2017.
    CREATED: 17 MAY 16:23 2017

SKBQ A1435/17 APN ASPHALT RELEASE, EXER CTN. 22 MAY 13:45 2017
    UNTIL 22 AUG 23:59 2017 ESTIMATED. CREATED: 22 MAY 13:45
    2017

SKBQ A1447/17 ACFT PSN PRKG NR 2 LTD, ACFT CAT C AND D ENTERING
    OR EXITING MUST BE TOWED. H24, 23 MAY 00:18 2017 UNTIL 22
    AUG 23:59 2017. CREATED: 23 MAY 00:17 2017

SKBQ A1535/17 TRIGGER NOTAM - AIRAC AIP SUP C23A11/17 WEF 22JUN2017
    AD REF. AIP AD 2 SKBQ, IAC 2. 31 MAY 21:00 2017 UNTIL PERM.
    CREATED: 31 MAY 21:16 2017

SKBQ A1566/17 ILS CAT I RWY 05 U/S. 02 JUN 22:06 2017 UNTIL 31
    JUL 23:59 2017. CREATED: 02 JUN 22:07 2017

SKBQ A1567/17 IAP ILS-Z RWY 05 NO AVBL IAP RNAV ILS-Y RWY 05
    NO AVBL IAP LOC RWY 05 NO AVBL. H24, 02 JUN 23:26 2017 UNTIL
    31 JUL 23:59 2017. CREATED: 02 JUN 23:27 2017

SKBQ A1584/17 STRIP RWY 05/23 AND MANOEUVRING AREA WIP, EXER
    CTN. H24, 08 JUN 00:00 2017 UNTIL 07 SEP 23:59 2017. CREATED:
    05 JUN 13:35 2017

SKBQ A1585/17 TEST POINT ENG RELOCATED TO: -TWY A BTN TWY C AND
    TWY D TO ACFT CAT C AND D COORD 105314.036N0744649.37W H24
    -TWY G BTN APN AND TWY B TO ACFT CAT A AND B COORD 105337.89N0744624.81W
    DLY BTN 1200-2200. 15 JUN 00:00 2017 UNTIL 14 SEP 23:59 2017.
    CREATED: 05 JUN 14:05 2017

SKBQ A1623/17 RWY 05/23 CLSD NO SE AUTH MODIFICACIONES HR OPS.
    DLY BTN 0500-1100 EXC JUN 15, 16, 17, 18, 19, 09 JUN 05:00
    2017 UNTIL 18 AUG 11:00 2017. CREATED: 08 JUN 16:42 2017

SKBQ A1705/17 AMA CHG TEMPO: VOR/DME BAQ BTN RDL 067 AND 082
    WI 42NM AND 48NM CHG 4000FT TO 7000FT AND BTN RDL 067 AND
    077 WI 48NM AND THE BDRY OF BAQ TMA CHG 5000FT TO 11000FT
    DUE TO VAR. 15 JUN 14:22 2017 UNTIL 14 DEC 23:59 2017. CREATED:
    15 JUN 14:22 2017

SKBQ A1706/17 TWY PARL A BTN TWY B AND TWY F, CLSD. H24, 15 JUN
    14:50 2017 UNTIL 25 JUN 23:59 2017. CREATED: 15 JUN 14:54
    2017

SKBQ A1714/17 TWY PARL A BTN TWY D AND TWY E CLSD. DLY BTN 0330-1030,
    16 JUN 17:48 2017 UNTIL 15 JUL 10:30 2017. CREATED: 16 JUN
    17:48 2017

SKBQ A1756/17 AD PRESENCE OF PERSONELL AND MACHINERY AT 120M
    THR 05, EXER CTN. H24, 23 JUN 13:10 2017 UNTIL 22 JUL 23:59
    2017. CREATED: 23 JUN 13:17 2017

SKBQ A2283/09 VOR BAQ FREQ 113.7 MHZ, U/S 27 SEP 23:38 UNTIL
    29 SEP 23:00 ESTIMATED H24

SKBQ C2117/09 TWY I OPR UNICAMENTE AVIACION MIL. H24, 31 MAY
    00:22 2009 UNTIL PERM. CREATED: 31 MAY 00:24 2009

SKBQ C4395/09 RVR 05, U/S 04 NOV 21:10 UNTIL 11 NOV 23:00 ESTIMATED

SKBQ F2452/10 [DEFENSE ENERGY SUPPORT CENTER ADVISORY] FUEL AVAILABILITY
    HOURS OF SERVICE ARE: MONDAY - FRIDAY 0600 -2200 LOCAL TIME.
    SATURDAY AND SUNDAY 08:30 -1830 LOCAL TIME. DESC DUTY OFFICER'S
    TELEPHONE NUMBER 703-767-8420, DSN 427-8420. 04 OCT 29:18
    2020 UNTIL 07 OCT 28:18 2020

---------------------------------------------------------------------------